createdAt,value
2023-04-02T00:01:47.814Z,11.82
2023-04-02T00:04:22.139Z,11.61
2023-04-02T00:06:54.510Z,11.53
2023-04-02T00:09:39.571Z,11.71
2023-04-02T00:12:16.069Z,11.32
2023-04-02T00:14:52.497Z,11.60
2023-04-02T00:17:23.017Z,11.66
2023-04-02T00:20:00.944Z,11.51
2023-04-02T00:22:32.570Z,11.67
2023-04-02T00:25:02.948Z,11.53
2023-04-02T00:27:32.391Z,11.60
2023-04-02T00:30:00.164Z,11.44
2023-04-02T00:32:33.179Z,11.49
2023-04-02T00:35:01.809Z,11.54
2023-04-02T00:37:39.021Z,11.45
2023-04-02T00:40:31.373Z,11.53
2023-04-02T00:43:00.331Z,11.41
2023-04-02T00:45:31.350Z,11.45
2023-04-02T00:48:01.362Z,11.46
2023-04-02T00:50:40.081Z,11.60
2023-04-02T00:53:15.970Z,11.61
2023-04-02T00:55:44.526Z,11.48
2023-04-02T00:58:26.638Z,11.56
2023-04-02T01:00:54.654Z,11.72
2023-04-02T01:03:23.081Z,11.67
2023-04-02T01:05:56.326Z,11.68
2023-04-02T01:08:34.382Z,11.74
2023-04-02T01:11:27.342Z,11.46
2023-04-02T01:14:12.577Z,11.59
2023-04-02T01:17:15.798Z,11.56
2023-04-02T01:20:08.264Z,11.32
2023-04-02T01:22:52.990Z,11.10
2023-04-02T01:25:30.837Z,11.38
2023-04-02T01:28:19.628Z,11.24
2023-04-02T01:30:56.431Z,11.27
2023-04-02T01:33:30.643Z,11.21
2023-04-02T01:36:39.245Z,11.23
2023-04-02T01:39:29.569Z,10.92
2023-04-02T01:42:10.553Z,11.09
2023-04-02T01:44:46.993Z,10.96
2023-04-02T01:47:18.033Z,10.79
2023-04-02T01:49:46.380Z,10.82
2023-04-02T01:52:17.494Z,10.45
2023-04-02T01:54:47.610Z,10.44
2023-04-02T01:57:16.722Z,10.24
2023-04-02T01:59:44.828Z,10.20
2023-04-02T02:02:13.666Z,10.25
2023-04-02T02:04:42.984Z,10.20
2023-04-02T02:07:17.394Z,10.21
2023-04-02T02:09:49.514Z,10.36
2023-04-02T02:12:16.721Z,10.27
2023-04-02T02:14:49.932Z,10.40
2023-04-02T02:17:24.252Z,10.30
2023-04-02T02:19:57.247Z,10.21
2023-04-02T02:22:30.311Z,10.26
2023-04-02T02:25:01.180Z,10.26
2023-04-02T02:27:28.246Z,10.37
2023-04-02T02:30:24.718Z,10.06
2023-04-02T02:33:14.506Z,10.25
2023-04-02T02:36:03.554Z,10.42
2023-04-02T02:38:35.111Z,10.42
2023-04-02T02:41:34.729Z,10.34
2023-04-02T02:44:11.667Z,10.33
2023-04-02T02:46:52.739Z,10.33
2023-04-02T02:49:30.336Z,10.29
2023-04-02T02:52:14.146Z,10.53
2023-04-02T02:55:02.951Z,10.25
2023-04-02T02:57:48.380Z,10.41
2023-04-02T03:00:17.989Z,10.29
2023-04-02T03:02:45.917Z,10.32
2023-04-02T03:05:22.396Z,10.21
2023-04-02T03:07:58.355Z,10.17
2023-04-02T03:10:32.979Z,10.17
2023-04-02T03:13:12.521Z,10.16
2023-04-02T03:15:57.474Z,10.13
2023-04-02T03:18:44.138Z,10.13
2023-04-02T03:21:26.956Z,10.09
2023-04-02T03:24:05.380Z,9.92
2023-04-02T03:26:44.519Z,9.90
2023-04-02T03:29:14.696Z,9.71
2023-04-02T03:31:49.382Z,9.61
2023-04-02T03:34:25.863Z,9.71
2023-04-02T03:37:11.755Z,9.74
2023-04-02T03:39:45.049Z,9.96
2023-04-02T03:42:26.347Z,9.98
2023-04-02T03:45:05.410Z,9.81
2023-04-02T03:47:42.744Z,10.01
2023-04-02T03:50:27.325Z,10.15
2023-04-02T03:52:59.553Z,10.13
2023-04-02T03:55:32.539Z,10.16
2023-04-02T03:58:03.454Z,10.12
2023-04-02T04:01:01.353Z,10.18
2023-04-02T04:03:37.449Z,10.16
2023-04-02T04:06:21.916Z,10.33
2023-04-02T04:09:00.613Z,10.60
2023-04-02T04:11:37.321Z,10.59
2023-04-02T04:14:13.982Z,10.71
2023-04-02T04:16:54.218Z,10.81
2023-04-02T04:19:45.814Z,10.85
2023-04-02T04:22:30.397Z,10.98
2023-04-02T04:25:07.710Z,10.88
2023-04-02T04:27:56.206Z,11.07
2023-04-02T04:30:27.484Z,11.07
2023-04-02T04:33:04.277Z,11.05
2023-04-02T04:35:45.858Z,11.09
2023-04-02T04:38:28.352Z,11.21
2023-04-02T04:41:03.315Z,10.95
2023-04-02T04:43:44.966Z,10.88
2023-04-02T04:46:20.808Z,10.80
2023-04-02T04:48:57.850Z,10.81
2023-04-02T04:51:39.389Z,10.75
2023-04-02T04:54:13.286Z,10.85
2023-04-02T04:56:47.835Z,10.77
2023-04-02T04:59:23.807Z,10.79
2023-04-02T05:02:16.304Z,10.86
2023-04-02T05:04:50.178Z,10.86
2023-04-02T05:07:32.826Z,11.05
2023-04-02T05:10:18.022Z,10.98
2023-04-02T05:12:55.141Z,10.85
2023-04-02T05:15:36.444Z,10.73
2023-04-02T05:18:24.526Z,10.99
2023-04-02T05:20:59.450Z,10.94
2023-04-02T05:23:34.378Z,10.84
2023-04-02T05:26:16.037Z,10.65
2023-04-02T05:28:52.211Z,10.99
2023-04-02T05:31:26.460Z,11.06
2023-04-02T05:33:57.070Z,10.90
2023-04-02T05:36:29.422Z,11.03
2023-04-02T05:39:00.102Z,10.99
2023-04-02T05:41:46.212Z,11.06
2023-04-02T05:44:22.338Z,11.13
2023-04-02T05:46:57.046Z,11.05
2023-04-02T05:49:48.935Z,11.10
2023-04-02T05:52:23.475Z,11.19
2023-04-02T05:55:10.213Z,11.32
2023-04-02T05:58:13.641Z,11.29
2023-04-02T06:00:39.412Z,11.50
2023-04-02T06:03:37.443Z,11.56
2023-04-02T06:06:16.379Z,11.65
2023-04-02T06:08:53.228Z,11.69
2023-04-02T06:11:27.980Z,11.76
2023-04-02T06:13:56.186Z,11.64
2023-04-02T06:16:28.379Z,11.88
2023-04-02T06:18:56.645Z,11.94
2023-04-02T06:21:23.919Z,11.98
2023-04-02T06:24:01.840Z,12.15
2023-04-02T06:26:38.303Z,12.24
2023-04-02T06:29:40.671Z,12.42
2023-04-02T06:32:13.085Z,12.39
2023-04-02T06:34:44.146Z,12.53
2023-04-02T06:37:32.286Z,12.72
2023-04-02T06:40:34.190Z,12.85
2023-04-02T06:43:33.625Z,13.08
2023-04-02T06:46:28.902Z,13.02
2023-04-02T06:49:38.497Z,13.21
2023-04-02T06:52:18.636Z,13.21
2023-04-02T06:54:48.128Z,13.27
2023-04-02T06:57:18.021Z,13.52
2023-04-02T06:59:47.614Z,13.58
2023-04-02T07:02:21.746Z,13.75
2023-04-02T07:04:49.685Z,13.65
2023-04-02T07:07:18.582Z,13.91
2023-04-02T07:09:47.734Z,14.03
2023-04-02T07:12:15.632Z,14.28
2023-04-02T07:14:43.900Z,14.19
2023-04-02T07:17:18.265Z,14.42
2023-04-02T07:19:49.811Z,14.63
2023-04-02T07:22:21.922Z,14.78
2023-04-02T07:24:53.510Z,14.59
2023-04-02T07:27:20.731Z,14.79
2023-04-02T07:29:47.810Z,14.95
2023-04-02T07:32:15.196Z,15.17
2023-04-02T07:34:43.842Z,15.40
2023-04-02T07:37:14.785Z,15.59
2023-04-02T07:39:42.398Z,15.67
2023-04-02T07:42:10.357Z,15.64
2023-04-02T07:44:37.721Z,15.70
2023-04-02T07:47:04.973Z,15.42
2023-04-02T07:49:34.970Z,15.55
2023-04-02T07:52:03.908Z,15.82
2023-04-02T07:54:31.988Z,15.88
2023-04-02T07:56:59.197Z,16.10
2023-04-02T07:59:26.385Z,16.41
2023-04-02T08:01:53.726Z,16.84
2023-04-02T08:04:23.012Z,16.93
2023-04-02T08:06:50.820Z,17.13
2023-04-02T08:09:18.502Z,17.18
2023-04-02T08:11:46.908Z,17.32
2023-04-02T08:14:14.529Z,17.34
2023-04-02T08:16:50.673Z,17.32
2023-04-02T08:19:18.370Z,17.36
2023-04-02T08:21:46.231Z,17.43
2023-04-02T08:24:13.457Z,17.52
2023-04-02T08:26:40.740Z,17.43
2023-04-02T08:29:07.896Z,17.41
2023-04-02T08:31:35.007Z,17.40
2023-04-02T08:34:02.187Z,17.28
2023-04-02T08:36:34.813Z,17.11
2023-04-02T08:39:03.103Z,17.38
2023-04-02T08:41:42.817Z,17.42
2023-04-02T08:44:36.802Z,17.62
2023-04-02T08:47:10.216Z,17.45
2023-04-02T08:49:37.348Z,17.56
2023-04-02T08:52:05.557Z,17.60
2023-04-02T08:54:43.853Z,17.60
2023-04-02T08:57:43.942Z,17.72
2023-04-02T09:00:40.949Z,17.72
2023-04-02T09:03:17.258Z,17.64
2023-04-02T09:05:46.016Z,17.62
2023-04-02T09:08:33.896Z,17.75
2023-04-02T09:11:19.487Z,17.69
2023-04-02T09:13:49.234Z,17.98
2023-04-02T09:16:23.029Z,17.88
2023-04-02T09:18:53.015Z,17.88
2023-04-02T09:21:37.733Z,17.96
2023-04-02T09:24:05.425Z,17.98
2023-04-02T09:26:33.992Z,18.10
2023-04-02T09:29:12.922Z,18.05
2023-04-02T09:31:46.958Z,17.93
2023-04-02T09:34:31.704Z,18.11
2023-04-02T09:37:29.763Z,18.14
2023-04-02T09:40:32.212Z,18.06
2023-04-02T09:43:04.300Z,18.05
2023-04-02T09:45:31.535Z,17.93
2023-04-02T09:47:59.216Z,17.90
2023-04-02T09:50:30.671Z,17.94
2023-04-02T09:52:58.399Z,18.17
2023-04-02T09:55:31.217Z,18.70
2023-04-02T09:58:16.705Z,18.91
2023-04-02T10:00:51.239Z,19.20
2023-04-02T10:03:29.140Z,19.54
2023-04-02T10:06:16.467Z,19.45
2023-04-02T10:08:45.669Z,19.30
2023-04-02T10:11:46.266Z,19.36
2023-04-02T10:14:25.942Z,19.03
2023-04-02T10:17:00.034Z,19.28
2023-04-02T10:19:38.027Z,19.67
2023-04-02T10:22:18.253Z,19.51
2023-04-02T10:24:45.492Z,19.25
2023-04-02T10:27:38.529Z,19.38
2023-04-02T10:30:28.796Z,19.11
2023-04-02T10:33:09.910Z,19.26
2023-04-02T10:35:45.616Z,19.04
2023-04-02T10:38:42.701Z,19.09
2023-04-02T10:41:28.617Z,18.73
2023-04-02T10:44:19.927Z,18.90
2023-04-02T10:46:59.326Z,19.04
2023-04-02T10:49:42.395Z,18.79
2023-04-02T10:52:18.901Z,18.82
2023-04-02T10:54:52.152Z,19.15
2023-04-02T10:57:19.313Z,19.13
2023-04-02T10:59:56.177Z,19.27
2023-04-02T11:02:54.446Z,19.19
2023-04-02T11:05:43.432Z,19.16
2023-04-02T11:08:25.980Z,19.37
2023-04-02T11:11:04.332Z,19.77
2023-04-02T11:13:38.898Z,20.05
2023-04-02T11:16:06.758Z,20.25
2023-04-02T11:18:39.006Z,20.11
2023-04-02T11:21:58.134Z,20.07
2023-04-02T11:24:38.154Z,20.02
2023-04-02T11:27:17.400Z,20.05
2023-04-02T11:29:49.789Z,19.89
2023-04-02T11:32:27.570Z,19.78
2023-04-02T11:35:05.974Z,19.41
2023-04-02T11:37:45.441Z,19.47
2023-04-02T11:40:14.487Z,19.52
2023-04-02T11:42:50.638Z,19.49
2023-04-02T11:45:27.782Z,19.61
2023-04-02T11:48:08.666Z,19.77
2023-04-02T11:50:49.667Z,19.64
2023-04-02T11:53:17.125Z,19.99
2023-04-02T11:55:46.878Z,20.22
2023-04-02T11:58:28.938Z,20.09
2023-04-02T12:01:18.492Z,20.19
2023-04-02T12:04:01.783Z,20.06
2023-04-02T12:06:46.977Z,20.33
2023-04-02T12:09:31.242Z,20.28
2023-04-02T12:12:01.218Z,20.18
2023-04-02T12:14:43.757Z,20.08
2023-04-02T12:17:33.121Z,20.01
2023-04-02T12:20:22.948Z,19.84
2023-04-02T12:22:53.131Z,19.95
2023-04-02T12:25:35.565Z,19.90
2023-04-02T12:28:09.679Z,20.06
2023-04-02T12:30:38.665Z,20.17
2023-04-02T12:33:28.334Z,20.28
2023-04-02T12:35:58.764Z,19.94
2023-04-02T12:38:32.637Z,19.84
2023-04-02T12:41:06.382Z,19.71
2023-04-02T12:43:38.357Z,19.94
2023-04-02T12:46:08.512Z,20.13
2023-04-02T12:48:36.586Z,19.96
2023-04-02T12:51:04.519Z,20.08
2023-04-02T12:53:37.782Z,20.18
2023-04-02T12:56:06.192Z,20.50
2023-04-02T12:58:37.165Z,20.52
2023-04-02T13:01:18.619Z,20.53
2023-04-02T13:04:04.477Z,20.84
2023-04-02T13:06:32.235Z,20.78
2023-04-02T13:09:01.429Z,20.35
2023-04-02T13:11:40.708Z,20.21
2023-04-02T13:14:17.801Z,20.27
2023-04-02T13:16:46.152Z,20.06
2023-04-02T13:19:31.747Z,20.13
2023-04-02T13:22:04.248Z,20.14
2023-04-02T13:24:33.554Z,19.96
2023-04-02T13:27:02.758Z,19.67
2023-04-02T13:29:30.953Z,19.59
2023-04-02T13:32:08.380Z,19.47
2023-04-02T13:34:35.484Z,19.65
2023-04-02T13:37:02.620Z,19.55
2023-04-02T13:39:30.572Z,19.57
2023-04-02T13:41:58.953Z,19.63
2023-04-02T13:44:28.360Z,19.76
2023-04-02T13:46:57.357Z,19.77
2023-04-02T13:49:26.544Z,19.45
2023-04-02T13:52:05.449Z,19.54
2023-04-02T13:54:49.798Z,19.72
2023-04-02T13:57:18.051Z,19.80
2023-04-02T13:59:45.769Z,19.36
2023-04-02T14:02:17.478Z,19.38
2023-04-02T14:04:50.913Z,19.06
2023-04-02T14:07:58.867Z,19.23
2023-04-02T14:10:44.375Z,19.18
2023-04-02T14:13:30.128Z,19.11
2023-04-02T14:16:28.134Z,19.01
2023-04-02T14:19:49.189Z,18.90
2023-04-02T14:22:49.788Z,18.77
2023-04-02T14:25:32.269Z,18.74
2023-04-02T14:28:09.336Z,18.75
2023-04-02T14:30:49.633Z,18.56
2023-04-02T14:33:49.062Z,18.72
2023-04-02T14:36:41.269Z,18.78
2023-04-02T14:39:12.123Z,18.73
2023-04-02T14:42:09.660Z,18.86
2023-04-02T14:44:42.523Z,18.81
2023-04-02T14:47:19.218Z,18.57
2023-04-02T14:49:50.899Z,18.43
2023-04-02T14:52:22.892Z,18.52
2023-04-02T14:54:56.859Z,18.62
2023-04-02T14:57:31.253Z,18.63
2023-04-02T15:00:21.144Z,18.80
2023-04-02T15:03:06.715Z,18.80
2023-04-02T15:05:47.809Z,18.92
2023-04-02T15:08:30.244Z,18.85
2023-04-02T15:11:09.652Z,18.91
2023-04-02T15:13:42.151Z,18.86
2023-04-02T15:16:19.532Z,19.06
2023-04-02T15:18:51.257Z,18.93
2023-04-02T15:21:25.643Z,18.87
2023-04-02T15:24:31.083Z,18.85
2023-04-02T15:27:24.369Z,18.75
2023-04-02T15:30:02.265Z,18.56
2023-04-02T15:32:36.470Z,18.67
2023-04-02T15:35:22.010Z,18.72
2023-04-02T15:38:11.850Z,18.71
2023-04-02T15:41:00.564Z,18.59
2023-04-02T15:44:02.110Z,18.35
2023-04-02T15:46:38.437Z,18.23
2023-04-02T15:49:10.365Z,18.26
2023-04-02T15:52:04.410Z,18.18
2023-04-02T15:54:41.179Z,18.04
2023-04-02T15:57:51.148Z,17.99
2023-04-02T16:00:22.666Z,17.89
2023-04-02T16:03:35.178Z,17.94
2023-04-02T16:06:30.239Z,17.90
2023-04-02T16:09:25.173Z,18.02
2023-04-02T16:11:58.736Z,17.94
2023-04-02T16:14:31.482Z,17.87
2023-04-02T16:17:21.733Z,17.65
2023-04-02T16:20:22.863Z,17.71
2023-04-02T16:23:01.094Z,17.57
2023-04-02T16:25:39.181Z,17.73
2023-04-02T16:28:29.355Z,17.85
2023-04-02T16:31:02.567Z,17.86
2023-04-02T16:33:56.958Z,17.80
2023-04-02T16:36:35.867Z,17.81
2023-04-02T16:39:14.878Z,17.88
2023-04-02T16:41:42.095Z,17.79
2023-04-02T16:44:21.148Z,17.89
2023-04-02T16:46:49.113Z,17.98
2023-04-02T16:49:38.901Z,17.86
2023-04-02T16:52:24.825Z,18.03
2023-04-02T16:55:30.659Z,17.84
2023-04-02T16:58:21.345Z,17.67
2023-04-02T17:00:53.898Z,17.70
2023-04-02T17:03:39.805Z,17.87
2023-04-02T17:06:17.881Z,17.76
2023-04-02T17:09:00.827Z,17.76
2023-04-02T17:11:43.024Z,17.76
2023-04-02T17:14:35.050Z,17.83
2023-04-02T17:17:04.496Z,17.79
2023-04-02T17:19:33.316Z,17.84
2023-04-02T17:22:03.418Z,17.98
2023-04-02T17:24:32.409Z,17.89
2023-04-02T17:27:15.549Z,17.92
2023-04-02T17:29:48.394Z,17.93
2023-04-02T17:32:38.415Z,17.87
2023-04-02T17:35:27.188Z,18.04
2023-04-02T17:38:23.629Z,18.09
2023-04-02T17:40:59.966Z,17.94
2023-04-02T17:43:50.288Z,17.85
2023-04-02T17:46:43.364Z,17.96
2023-04-02T17:49:39.460Z,17.83
2023-04-02T17:52:06.646Z,17.84
2023-04-02T17:54:51.827Z,17.67
2023-04-02T17:57:25.808Z,17.72
2023-04-02T18:00:14.491Z,17.67
2023-04-02T18:03:12.439Z,17.65
2023-04-02T18:05:45.830Z,17.79
2023-04-02T18:08:45.222Z,17.56
2023-04-02T18:11:39.370Z,17.28
2023-04-02T18:14:24.806Z,17.50
2023-04-02T18:17:06.663Z,17.37
2023-04-02T18:19:34.641Z,17.25
2023-04-02T18:22:43.521Z,17.01
2023-04-02T18:25:19.801Z,17.04
2023-04-02T18:28:15.009Z,16.99
2023-04-02T18:30:52.631Z,16.92
2023-04-02T18:34:01.604Z,16.83
2023-04-02T18:36:31.270Z,16.71
2023-04-02T18:39:36.534Z,16.88
2023-04-02T18:42:36.223Z,16.79
2023-04-02T18:45:09.282Z,16.62
2023-04-02T18:48:10.610Z,16.74
2023-04-02T18:50:46.043Z,16.63
2023-04-02T18:53:19.315Z,16.66
2023-04-02T18:56:04.599Z,16.57
2023-04-02T18:58:38.203Z,16.48
2023-04-02T19:01:09.945Z,16.44
2023-04-02T19:03:44.331Z,16.43
2023-04-02T19:06:23.585Z,16.36
2023-04-02T19:09:00.502Z,16.31
2023-04-02T19:11:31.545Z,16.26
2023-04-02T19:14:12.113Z,16.40
2023-04-02T19:16:51.269Z,16.32
2023-04-02T19:19:23.625Z,16.27
2023-04-02T19:22:10.461Z,16.42
2023-04-02T19:25:17.133Z,16.43
2023-04-02T19:27:56.049Z,16.11
2023-04-02T19:31:07.025Z,16.21
2023-04-02T19:33:50.106Z,16.29
2023-04-02T19:36:20.487Z,16.34
2023-04-02T19:39:21.776Z,16.45
2023-04-02T19:41:59.159Z,16.48
2023-04-02T19:44:26.563Z,16.27
2023-04-02T19:46:54.864Z,16.31
2023-04-02T19:49:28.467Z,16.28
2023-04-02T19:51:57.075Z,16.15
2023-04-02T19:54:24.376Z,15.93
2023-04-02T19:56:51.730Z,15.55
2023-04-02T19:59:19.020Z,15.54
2023-04-02T20:01:47.393Z,15.31
2023-04-02T20:04:16.491Z,15.13
2023-04-02T20:06:43.762Z,15.01
2023-04-02T20:09:11.184Z,14.88
2023-04-02T20:11:39.267Z,14.62
2023-04-02T20:14:06.830Z,14.55
2023-04-02T20:16:34.560Z,14.50
2023-04-02T20:19:01.872Z,14.57
2023-04-02T20:21:34.791Z,14.62
2023-04-02T20:24:02.139Z,14.48
2023-04-02T20:26:30.136Z,14.62
2023-04-02T20:28:57.496Z,14.67
2023-04-02T20:31:24.630Z,14.76
2023-04-02T20:33:56.338Z,14.77
2023-04-02T20:36:24.957Z,14.92
2023-04-02T20:38:52.354Z,14.84
2023-04-02T20:41:20.053Z,15.02
2023-04-02T20:43:47.280Z,15.17
2023-04-02T20:46:14.698Z,15.26
2023-04-02T20:48:42.030Z,15.09
2023-04-02T20:51:11.681Z,15.44
2023-04-02T20:53:39.232Z,15.73
2023-04-02T20:56:18.893Z,15.84
2023-04-02T20:58:47.121Z,15.91
2023-04-02T21:01:26.120Z,15.84
2023-04-02T21:04:02.365Z,16.05
2023-04-02T21:06:32.737Z,15.92
2023-04-02T21:09:02.118Z,15.84
2023-04-02T21:11:29.288Z,16.09
2023-04-02T21:13:56.674Z,16.14
2023-04-02T21:16:29.014Z,16.24
2023-04-02T21:18:58.649Z,16.21
2023-04-02T21:21:26.732Z,16.16
2023-04-02T21:23:56.450Z,16.05
2023-04-02T21:26:23.836Z,16.18
2023-04-02T21:28:51.018Z,16.04
2023-04-02T21:31:20.887Z,16.05
2023-04-02T21:33:54.405Z,15.97
2023-04-02T21:36:24.286Z,16.12
2023-04-02T21:38:55.896Z,16.07
2023-04-02T21:41:26.856Z,16.07
2023-04-02T21:43:55.497Z,16.06
2023-04-02T21:46:26.154Z,16.04
2023-04-02T21:48:54.635Z,16.17
2023-04-02T21:51:24.169Z,16.12
2023-04-02T21:53:54.231Z,16.16
2023-04-02T21:56:27.460Z,16.01
2023-04-02T21:58:57.511Z,15.98
2023-04-02T22:01:28.208Z,16.10
2023-04-02T22:03:57.288Z,16.14
2023-04-02T22:06:27.263Z,15.91
2023-04-02T22:08:59.533Z,16.01
2023-04-02T22:11:39.396Z,16.02
2023-04-02T22:14:06.967Z,16.11
2023-04-02T22:16:35.701Z,15.98
2023-04-02T22:19:06.127Z,15.89
2023-04-02T22:21:34.546Z,15.79
2023-04-02T22:24:03.748Z,15.73
2023-04-02T22:26:32.013Z,15.64
2023-04-02T22:29:00.412Z,15.74
2023-04-02T22:31:31.391Z,15.95
2023-04-02T22:33:59.661Z,15.81
2023-04-02T22:36:28.867Z,15.77
2023-04-02T22:38:57.675Z,15.62
2023-04-02T22:41:27.763Z,15.92
2023-04-02T22:43:59.651Z,15.75
2023-04-02T22:46:28.130Z,15.86
2023-04-02T22:48:55.952Z,15.88
2023-04-02T22:51:24.553Z,15.85
2023-04-02T22:53:53.974Z,15.88
2023-04-02T22:56:24.913Z,15.73
2023-04-02T22:58:51.956Z,15.62
2023-04-02T23:01:25.318Z,15.65
2023-04-02T23:03:56.504Z,15.74
2023-04-02T23:06:24.708Z,15.74
2023-04-02T23:08:52.314Z,15.56
2023-04-02T23:11:22.396Z,15.61
2023-04-02T23:13:52.163Z,15.59
2023-04-02T23:16:20.526Z,15.57
2023-04-02T23:18:48.722Z,15.67
2023-04-02T23:21:17.605Z,15.73
2023-04-02T23:23:45.762Z,15.47
2023-04-02T23:26:15.819Z,15.64
2023-04-02T23:28:43.754Z,15.56
2023-04-02T23:31:17.516Z,15.54
2023-04-02T23:33:45.818Z,15.66
2023-04-02T23:36:34.788Z,15.81
2023-04-02T23:39:05.792Z,15.62
2023-04-02T23:41:32.868Z,15.62
2023-04-02T23:44:00.574Z,15.63
2023-04-02T23:46:28.673Z,15.52
2023-04-02T23:48:57.190Z,15.20
2023-04-02T23:51:24.784Z,15.23
2023-04-02T23:53:53.738Z,14.90
2023-04-02T23:56:22.399Z,14.95
2023-04-02T23:58:50.616Z,14.88
